Flight Track Log - Related Links

Times and Time Zones

All times are in EDT time to prevent confusion due to time zone crossing. See the SWA2626 flight status page for this flight to view local times or setup timezone preferences in your user account.

Time Position Orientation Groundspeed Altitude Reporting Facility
EDT Latitude Longitude Course Direction KTS MPH feet Rate Location/Type
Wed 05:39:27 PM 42.9106 -71.4281 251° West 155 178 1,300  Level Boston Center
Wed 05:40:27 PM 42.8967 -71.4822 251° West 222 255 3,300 3,000 Climbing Boston Center
Wed 05:41:27 PM 42.9617 -71.5322 331° Northwest 195 224 7,300 3,550 Climbing Boston Center
Wed 05:42:27 PM 43.0058 -71.5911 316° Northwest 219 252 10,400 1,900 Climbing Boston Center
Wed 05:43:27 PM 43.0669 -71.6956 309° West 289 333 11,100 2,300 Climbing Boston Center
Wed 05:44:27 PM 43.1197 -71.7944 306° West 350 403 15,000 3,400 Climbing Boston Center
Wed 05:45:27 PM 43.1703 -71.9333 297° West 365 420 17,900 2,700 Climbing Boston Center
Wed 05:46:27 PM 43.2064 -72.0556 292° West 370 426 20,400 2,300 Climbing Boston Center
Wed 05:47:27 PM 43.2253 -72.1750 282° West 384 442 22,500 2,350 Climbing Boston Center
Wed 05:48:27 PM 43.2256 -72.3689 270° West 410 472 25,100 2,350 Climbing Boston Center
Wed 05:49:27 PM 43.2256 -72.5314 270° West 424 488 27,200 1,900 Climbing Boston Center
Wed 05:50:27 PM 43.2253 -72.6994 270° West 434 499 28,900 1,700 Climbing Boston Center
Wed 05:51:27 PM 43.2250 -72.8703 270° West 444 511 30,600 1,550 Climbing Boston Center
Wed 05:52:27 PM 43.2242 -73.0442 270° West 454 522 32,000 700 Climbing Boston Center
Wed 05:53:27 PM 43.2231 -73.2208 270° West 459 528 32,000  Level Boston Center
Wed 05:54:27 PM 43.2153 -73.4117 267° West 459 528 32,000  Level Boston Center
Wed 05:55:27 PM 43.2033 -73.5881 265° West 459 528 32,000  Level Boston Center
Wed 05:56:27 PM 43.1889 -73.7500 263° West 465 535 32,000  Level Boston Center
Wed 05:57:27 PM 43.1764 -73.9292 265° West 470 541 32,000  Level Boston Center
Wed 05:58:27 PM 43.1636 -74.1081 264° West 481 554 32,000 1,000 Level Boston Center
Wed 05:59:27 PM 43.1483 -74.2869 263° West 481 554 34,000 1,950 Climbing Boston Center
Wed 06:00:27 PM 43.1350 -74.4603 264° West 476 548 35,900 1,409 Climbing Boston Center
Wed 06:01:39 PM 43.1192 -74.6303 263° West 466 536 37,100 1,409 Climbing Boston Center
Wed 06:02:39 PM 43.1025 -74.8344 264° West 461 531 39,000 1,400 Climbing Boston Center
Wed 06:03:39 PM 43.0886 -75.0047 264° West 461 531 39,900 500 Climbing Boston Center
Wed 06:04:39 PM 43.0719 -75.1744 262° West 456 525 40,000 50 Climbing Boston Center
Wed 06:05:39 PM 43.0572 -75.3472 263° West 461 531 40,000  Level Boston Center
Wed 06:06:51 PM 43.0419 -75.5339 264° West 461 531 40,000  Level Boston Center
Wed 06:07:51 PM 43.0217 -75.7403 262° West 461 531 40,000  Level Boston Center
Wed 06:08:51 PM 43.0061 -75.9128 263° West 461 531 40,000  Level Boston Center
Wed 06:09:51 PM 42.9906 -76.0794 263° West 461 531 40,000  Level Boston Center
Wed 06:12:10 PM 42.9514 -76.4583 262° West 457 526 40,000  Level Cleveland Center
Wed 06:13:10 PM 42.9367 -76.6297 263° West 457 526 40,000  Level Cleveland Center
Wed 06:14:09 PM 42.9158 -76.8153 261° West 457 526 40,000  Level Cleveland Center
Wed 06:15:10 PM 42.8983 -76.9864 262° West 457 526 40,000  Level Cleveland Center
Wed 06:16:10 PM 42.8572 -77.1475 251° West 452 520 40,000  Level Cleveland Center
Wed 06:17:09 PM 42.8075 -77.3031 247° West 452 520 40,000  Level Cleveland Center
Wed 06:18:10 PM 42.7556 -77.4614 246° West 452 520 40,000  Level Cleveland Center
Wed 06:19:09 PM 42.7072 -77.5964 244° Southwest 457 526 40,000  Level Cleveland Center
Wed 06:20:09 PM 42.6611 -77.7511 248° West 452 520 40,000  Level Cleveland Center
Wed 06:21:10 PM 42.6083 -77.9058 245° Southwest 447 514 40,000  Level Cleveland Center
Wed 06:22:10 PM 42.5575 -78.0519 245° Southwest 441 507 40,000  Level Cleveland Center
Wed 06:23:09 PM 42.5067 -78.2033 246° West 441 507 40,000  Level Cleveland Center
Wed 06:24:10 PM 42.4575 -78.3542 246° West 441 507 40,000  Level Cleveland Center
Wed 06:25:10 PM 42.4058 -78.4994 244° Southwest 446 513 40,000  Level Cleveland Center
Wed 06:26:09 PM 42.3544 -78.6500 245° Southwest 446 513 40,000  Level Cleveland Center
Wed 06:27:10 PM 42.3025 -78.7978 245° Southwest 446 513 40,000  Level Cleveland Center
Wed 06:28:09 PM 42.2467 -78.9619 245° Southwest 446 513 40,000  Level Cleveland Center
Wed 06:29:10 PM 42.1925 -79.1119 244° Southwest 446 513 40,000  Level Cleveland Center
Wed 06:30:10 PM 42.1525 -79.2697 251° West 446 513 40,000  Level Cleveland Center
Wed 06:31:10 PM 42.1106 -79.4272 250° West 441 507 40,000  Level Cleveland Center
Wed 06:32:09 PM 42.0703 -79.5819 251° West 448 516 40,000  Level Cleveland Center
Wed 06:33:10 PM 42.0278 -79.7389 250° West 448 516 40,000  Level Cleveland Center
Wed 06:34:09 PM 41.9892 -79.8931 251° West 448 516 40,000  Level Cleveland Center
Wed 06:35:09 PM 41.9503 -80.0331 250° West 448 516 40,000  Level Cleveland Center
Wed 06:36:09 PM 41.9092 -80.1842 250° West 442 509 40,000  Level Cleveland Center
Wed 06:37:10 PM 41.8700 -80.3350 251° West 442 509 40,000  Level Cleveland Center
Wed 06:38:09 PM 41.8267 -80.4911 250° West 447 514 40,000  Level Cleveland Center
Wed 06:39:10 PM 41.7847 -80.6444 250° West 447 514 40,000  Level Cleveland Center
Wed 06:40:09 PM 41.7472 -80.7808 250° West 447 514 40,000  Level Cleveland Center
Wed 06:41:09 PM 41.6967 -80.9614 249° West 447 514 40,000  Level Cleveland Center
Wed 06:42:09 PM 41.6564 -81.1111 250° West 442 509 40,000  Level Cleveland Center
Wed 06:43:09 PM 41.6119 -81.2664 249° West 442 509 40,000  Level Cleveland Center
Wed 06:44:09 PM 41.5692 -81.4186 249° West 447 514 40,000  Level Cleveland Center
Wed 06:45:10 PM 41.5283 -81.5706 250° West 447 514 40,000  Level Cleveland Center
Wed 06:46:10 PM 41.5144 -81.7339 264° West 441 507 40,000  Level Cleveland Center
Wed 06:47:09 PM 41.5147 -81.9003 270° West 441 507 40,000  Level Cleveland Center
Wed 06:48:10 PM 41.5125 -82.0639 269° West 446 513 40,000  Level Cleveland Center
Wed 06:49:09 PM 41.5144 -82.2275 271° West 440 506 40,000  Level Cleveland Center
Wed 06:50:09 PM 41.5119 -82.3911 269° West 440 506 40,000  Level Cleveland Center
Wed 06:51:09 PM 41.5114 -82.5519 270° West 440 506 40,000  Level Cleveland Center
Wed 06:52:09 PM 41.5108 -82.7128 270° West 440 506 40,000  Level Cleveland Center
Wed 06:53:09 PM 41.5075 -82.8736 268° West 440 506 40,000  Level Cleveland Center
Wed 06:54:09 PM 41.5064 -83.0342 270° West 435 501 40,000  Level Cleveland Center
Wed 06:55:09 PM 41.5072 -83.1814 270° West 435 501 40,000  Level Cleveland Center
Wed 06:56:09 PM 41.5014 -83.3392 267° West 435 501 40,000  Level Cleveland Center
Wed 06:57:10 PM 41.4997 -83.4972 269° West 435 501 40,000  Level Cleveland Center
Wed 06:58:09 PM 41.4975 -83.6578 269° West 435 501 40,000  Level Cleveland Center
Wed 06:59:09 PM 41.4953 -83.8186 269° West 440 506 40,000  Level Cleveland Center
Wed 07:00:09 PM 41.4925 -83.9819 269° West 440 506 40,000 -300 Level Cleveland Center
Wed 07:01:09 PM 41.4897 -84.1400 269° West 440 506 39,400 -1,700 Descending Cleveland Center
Wed 07:02:09 PM 41.4864 -84.3144 269° West 440 506 36,600 -2,950 Descending Cleveland Center
Wed 07:04:08 PM 41.4819 -84.6075 269° West 440 506 30,600 -2,188 Descending Chicago Center
Wed 07:05:10 PM 41.4850 -84.7714 271° West 444 511 30,000 -290 Descending Chicago Center
Wed 07:06:12 PM 41.4922 -84.9725 273° West 451 519 30,000 -97 Level Chicago Center
Wed 07:07:14 PM 41.4983 -85.1383 273° West 447 514 29,800 -1,790 Descending Chicago Center
Wed 07:08:16 PM 41.5028 -85.3081 272° West 447 514 26,300 -3,145 Descending Chicago Center
Wed 07:09:18 PM 41.5078 -85.4747 272° West 445 512 23,300 -2,952 Descending Chicago Center
Wed 07:10:20 PM 41.5139 -85.6322 273° West 421 484 20,200 -2,710 Descending Chicago Center
Wed 07:11:22 PM 41.5181 -85.7872 272° West 416 479 17,700 -2,112 Descending Chicago Center
Wed 07:12:25 PM 41.5217 -85.9378 272° West 403 464 15,800 -1,728 Descending Chicago Center
Wed 07:13:27 PM 41.5247 -86.0800 272° West 387 445 14,100 -1,790 Descending Chicago Center
Wed 07:14:29 PM 41.5236 -86.2497 270° West 380 437 12,100 -1,500 Descending Chicago Center
Wed 07:15:31 PM 41.5228 -86.3878 270° West 370 426 11,000 -581 Descending Chicago Center
Wed 07:16:33 PM 41.5214 -86.5219 269° West 364 419 10,900 -484 Descending Chicago Center
Wed 07:17:35 PM 41.5197 -86.6558 269° West 362 417 10,000 -435 Descending Chicago Center
Wed 07:18:37 PM 41.5200 -86.7964 270° West 344 396 10,000 -339 Level Chicago Center
Wed 07:19:39 PM 41.5178 -86.9008 268° West 285 328 9,300 -1,016 Descending Chicago Center
Wed 07:20:41 PM 41.5175 -87.0008 270° West 273 314 7,900 -1,403 Descending Chicago Center
Wed 07:21:43 PM 41.5186 -87.0978 271° West 266 306 6,400 -1,107 Descending Chicago Center
Wed 07:22:24 PM 41.5167 -87.1833 268° West 261 300 6,000 -250 Descending Chicago TRACON
Wed 07:23:19 PM 41.5333 -87.2667 285° West 257 296 6,000  Level Chicago TRACON
Wed 07:24:13 PM 41.5500 -87.3500 285° West 257 296 6,000 -66 Level Chicago TRACON
Wed 07:24:50 PM 41.5483 -87.3989 267° West 257 296 5,900 -727 Descending Chicago Center
Wed 07:25:52 PM 41.5589 -87.4933 279° West 259 298 4,800 -968 Descending Chicago Center
Wed 07:26:54 PM 41.5711 -87.6058 278° West 259 298 3,900 -435 Descending Chicago Center
Wed 07:27:56 PM 41.5817 -87.6997 279° West 258 297 3,900  Level Chicago Center
Wed 07:28:58 PM 41.5911 -87.7917 278° West 257 296 3,900  Level Chicago Center
Wed 07:30:00 PM 41.5997 -87.8672 279° West 230 265 3,900 -484 Level Chicago Center
Wed 07:31:02 PM 41.6317 -87.9083 316° Northwest 201 231 2,900 -726 Descending Chicago Center
Wed 07:32:04 PM 41.6819 -87.8806 22° Northeast 178 205 2,400 -286 Descending Chicago Center
Wed 07:32:26 PM 41.7000 -87.8667 30° Northeast 173 199 2,500 -316 Climbing Chicago TRACON
Wed 07:33:20 PM 41.7333 -87.8333 37° Northeast 167 192 2,000 -632 Descending Chicago TRACON
Wed 07:34:20 PM 41.7500 -87.7833 66° East 130 150 1,300 -700 Descending Chicago TRACON
Wed 07:37:00 PM 41.7833 -87.7500 334° Northwest  Level FlightAware Approximate

Login

Don't have an account? Register now (free) for customized features, flight alerts, and more!